This is the latest recevied weather packets stored in our database for station/object AD4CG. If no packets are shown the sender has not sent any weather packets the latest 10 day(s).
| Time | Temp. | Humidity | Pressure | Rain* | Wind** | Luminosity | Snow |
|---|---|---|---|---|---|---|---|
| 1777256605 | 12.22° C | 80% | 1020.7 hPa | 0 mm | - | - | - |
| 1777254189 | 12.78° C | 80% | 1020 hPa | 0 mm | - | - | - |
| 1777252763 | 12.78° C | 85% | 1019.6 hPa | 0 mm | - | - | - |
| 1777252449 | 12.78° C | 85% | 1019.3 hPa | 0 mm | - | - | - |
| 1777249788 | 12.78° C | 86% | 1019 hPa | 0 mm | - | - | - |
| 1777248840 | 12.78° C | 87% | 1018.6 hPa | 0 mm | - | - | - |
| 1777246028 | 13.33° C | 87% | 1018.3 hPa | 0 mm | - | - | - |
| 1777244146 | 13.33° C | 88% | 1017.9 hPa | 0 mm | - | - | - |
| 1777242549 | 13.89° C | 88% | 1017.9 hPa | 0 mm | - | - | - |
| 1777239986 | 15° C | 86% | 1016.9 hPa | 0 mm | - | - | - |
| 1777239367 | 15° C | 87% | 1016.9 hPa | 0 mm | - | - | - |
| 1777235258 | 15° C | 64% | 1016.3 hPa | 0 mm | - | - | - |
| 1777233380 | 15° C | 67% | 1015.9 hPa | 0 mm | - | - | - |
| 1777228662 | 13.89° C | 78% | 1016.3 hPa | 0 mm | - | - | - |
| 1777228044 | 13.89° C | 79% | 1016.3 hPa | 0 mm | - | - | - |
| 1777225191 | 13.89° C | 79% | 1015.6 hPa | 0 mm | - | - | - |
| 1777216383 | 14.44° C | 100% | 1015.2 hPa | 0 mm | - | - | - |
| 1777214182 | 15.56° C | 100% | 1014.2 hPa | 0 mm | - | - | - |
| 1777211667 | 17.22° C | 100% | 1013.5 hPa | 0 mm | - | - | - |
| 1777208163 | 16.67° C | 100% | 1013.5 hPa | 0 mm | - | - | - |
| 1777207537 | 16.67° C | 100% | 1013.5 hPa | 0 mm | - | - | - |
| 1777201558 | 16.67° C | 100% | 1012.5 hPa | 0 mm | - | - | - |
| 1777201237 | 16.67° C | 100% | 1012.2 hPa | 0 mm | - | - | - |
| 1777199947 | 16.67° C | 100% | 1011.5 hPa | 0 mm | - | - | - |
| 1777198689 | 16.67° C | 100% | 1011.5 hPa | 0 mm | - | - | - |
* Rain latest hour (hover to see other rain measurements)
** Current wind speed in m/s (hover to see current wind gust speed)